sensor_id;sensor_type;location;lat;lon;timestamp;temperature;humidity
4695;DHT22;2361;49.540;8.390;2022-07-29T00:02:26;22.90;67.90
4695;DHT22;2361;49.540;8.390;2022-07-29T00:04:54;22.80;68.30
4695;DHT22;2361;49.540;8.390;2022-07-29T00:07:21;22.80;68.50
4695;DHT22;2361;49.540;8.390;2022-07-29T00:09:48;22.70;68.70
4695;DHT22;2361;49.540;8.390;2022-07-29T00:12:22;22.60;68.50
4695;DHT22;2361;49.540;8.390;2022-07-29T00:14:54;22.60;68.50
4695;DHT22;2361;49.540;8.390;2022-07-29T00:17:22;22.60;68.50
4695;DHT22;2361;49.540;8.390;2022-07-29T00:19:49;22.60;68.40
4695;DHT22;2361;49.540;8.390;2022-07-29T00:22:16;22.50;68.30
4695;DHT22;2361;49.540;8.390;2022-07-29T00:24:44;22.50;68.50
4695;DHT22;2361;49.540;8.390;2022-07-29T00:27:11;22.50;68.60
4695;DHT22;2361;49.540;8.390;2022-07-29T00:29:37;22.50;68.40
4695;DHT22;2361;49.540;8.390;2022-07-29T00:32:05;22.50;68.10
4695;DHT22;2361;49.540;8.390;2022-07-29T00:34:32;22.50;68.20
4695;DHT22;2361;49.540;8.390;2022-07-29T00:37:17;22.60;68.00
4695;DHT22;2361;49.540;8.390;2022-07-29T00:39:44;22.70;67.60
4695;DHT22;2361;49.540;8.390;2022-07-29T00:42:11;22.80;67.20
4695;DHT22;2361;49.540;8.390;2022-07-29T00:44:40;22.80;67.10
4695;DHT22;2361;49.540;8.390;2022-07-29T00:47:08;22.80;67.90
4695;DHT22;2361;49.540;8.390;2022-07-29T00:49:36;22.70;67.50
4695;DHT22;2361;49.540;8.390;2022-07-29T00:52:07;22.70;68.00
4695;DHT22;2361;49.540;8.390;2022-07-29T00:54:35;22.70;68.00
4695;DHT22;2361;49.540;8.390;2022-07-29T00:57:10;22.60;68.10
4695;DHT22;2361;49.540;8.390;2022-07-29T00:59:37;22.60;68.60
4695;DHT22;2361;49.540;8.390;2022-07-29T01:02:04;22.60;68.40
4695;DHT22;2361;49.540;8.390;2022-07-29T01:04:32;22.60;68.10
4695;DHT22;2361;49.540;8.390;2022-07-29T01:07:01;22.50;68.30
4695;DHT22;2361;49.540;8.390;2022-07-29T01:09:29;22.50;68.50
4695;DHT22;2361;49.540;8.390;2022-07-29T01:12:15;22.50;69.20
4695;DHT22;2361;49.540;8.390;2022-07-29T01:14:45;22.50;68.20
4695;DHT22;2361;49.540;8.390;2022-07-29T01:20:12;22.50;67.40
4695;DHT22;2361;49.540;8.390;2022-07-29T01:31:20;22.40;66.20
4695;DHT22;2361;49.540;8.390;2022-07-29T01:34:03;22.30;66.50
4695;DHT22;2361;49.540;8.390;2022-07-29T01:36:36;22.20;66.80
4695;DHT22;2361;49.540;8.390;2022-07-29T01:39:18;22.20;66.70
4695;DHT22;2361;49.540;8.390;2022-07-29T01:42:01;22.20;66.90
4695;DHT22;2361;49.540;8.390;2022-07-29T01:45:22;22.20;67.00
4695;DHT22;2361;49.540;8.390;2022-07-29T01:48:05;22.20;67.30
4695;DHT22;2361;49.540;8.390;2022-07-29T01:51:02;22.20;67.40
4695;DHT22;2361;49.540;8.390;2022-07-29T01:53:38;22.10;67.50
4695;DHT22;2361;49.540;8.390;2022-07-29T01:56:11;22.10;67.80
4695;DHT22;2361;49.540;8.390;2022-07-29T01:58:41;22.00;67.60
4695;DHT22;2361;49.540;8.390;2022-07-29T02:01:11;22.00;68.00
4695;DHT22;2361;49.540;8.390;2022-07-29T02:03:43;22.00;68.10
4695;DHT22;2361;49.540;8.390;2022-07-29T02:06:14;22.00;68.00
4695;DHT22;2361;49.540;8.390;2022-07-29T02:08:46;22.00;68.00
4695;DHT22;2361;49.540;8.390;2022-07-29T02:11:14;22.00;68.20
4695;DHT22;2361;49.540;8.390;2022-07-29T02:13:41;21.90;68.20
4695;DHT22;2361;49.540;8.390;2022-07-29T02:16:09;21.90;68.30
4695;DHT22;2361;49.540;8.390;2022-07-29T02:18:41;21.90;68.30
4695;DHT22;2361;49.540;8.390;2022-07-29T02:21:09;21.90;68.10
4695;DHT22;2361;49.540;8.390;2022-07-29T02:23:42;21.90;68.00
4695;DHT22;2361;49.540;8.390;2022-07-29T02:26:19;21.90;68.00
4695;DHT22;2361;49.540;8.390;2022-07-29T02:28:52;21.80;68.10
4695;DHT22;2361;49.540;8.390;2022-07-29T02:31:33;21.70;68.10
4695;DHT22;2361;49.540;8.390;2022-07-29T02:34:06;21.70;68.30
4695;DHT22;2361;49.540;8.390;2022-07-29T02:36:35;21.70;68.40
4695;DHT22;2361;49.540;8.390;2022-07-29T02:39:04;21.70;69.10
4695;DHT22;2361;49.540;8.390;2022-07-29T02:41:47;21.70;68.40
4695;DHT22;2361;49.540;8.390;2022-07-29T02:44:20;21.60;68.40
4695;DHT22;2361;49.540;8.390;2022-07-29T02:47:13;21.60;68.70
4695;DHT22;2361;49.540;8.390;2022-07-29T02:50:02;21.50;69.50
4695;DHT22;2361;49.540;8.390;2022-07-29T02:52:47;21.50;68.90
4695;DHT22;2361;49.540;8.390;2022-07-29T02:55:29;21.50;68.80
4695;DHT22;2361;49.540;8.390;2022-07-29T02:58:01;21.50;69.10
4695;DHT22;2361;49.540;8.390;2022-07-29T03:00:40;21.40;69.10
4695;DHT22;2361;49.540;8.390;2022-07-29T03:03:12;21.40;69.40
4695;DHT22;2361;49.540;8.390;2022-07-29T03:05:40;21.40;69.40
4695;DHT22;2361;49.540;8.390;2022-07-29T03:08:10;21.40;69.30
4695;DHT22;2361;49.540;8.390;2022-07-29T03:10:39;21.40;69.40
4695;DHT22;2361;49.540;8.390;2022-07-29T03:13:10;21.40;69.50
4695;DHT22;2361;49.540;8.390;2022-07-29T03:15:39;21.30;69.70
4695;DHT22;2361;49.540;8.390;2022-07-29T03:18:06;21.30;70.00
4695;DHT22;2361;49.540;8.390;2022-07-29T03:20:34;21.20;70.10
4695;DHT22;2361;49.540;8.390;2022-07-29T03:23:01;21.20;70.20
4695;DHT22;2361;49.540;8.390;2022-07-29T03:25:28;21.20;70.30
4695;DHT22;2361;49.540;8.390;2022-07-29T03:27:55;21.20;70.40
4695;DHT22;2361;49.540;8.390;2022-07-29T03:30:23;21.10;70.60
4695;DHT22;2361;49.540;8.390;2022-07-29T03:32:51;21.10;70.90
4695;DHT22;2361;49.540;8.390;2022-07-29T03:35:20;21.10;71.10
4695;DHT22;2361;49.540;8.390;2022-07-29T03:37:47;21.10;71.20
4695;DHT22;2361;49.540;8.390;2022-07-29T03:40:18;21.10;71.30
4695;DHT22;2361;49.540;8.390;2022-07-29T03:42:48;21.10;71.10
4695;DHT22;2361;49.540;8.390;2022-07-29T03:45:18;21.10;71.70
4695;DHT22;2361;49.540;8.390;2022-07-29T03:47:48;21.10;71.10
4695;DHT22;2361;49.540;8.390;2022-07-29T03:50:21;21.10;71.00
4695;DHT22;2361;49.540;8.390;2022-07-29T03:52:49;21.20;71.00
4695;DHT22;2361;49.540;8.390;2022-07-29T03:55:16;21.10;71.30
4695;DHT22;2361;49.540;8.390;2022-07-29T03:57:44;21.10;71.40
4695;DHT22;2361;49.540;8.390;2022-07-29T04:00:13;21.00;71.60
4695;DHT22;2361;49.540;8.390;2022-07-29T04:02:43;21.10;71.60
4695;DHT22;2361;49.540;8.390;2022-07-29T04:05:16;21.00;71.70
4695;DHT22;2361;49.540;8.390;2022-07-29T04:07:47;21.00;71.90
4695;DHT22;2361;49.540;8.390;2022-07-29T04:10:15;21.00;72.10
4695;DHT22;2361;49.540;8.390;2022-07-29T04:12:55;21.00;72.20
4695;DHT22;2361;49.540;8.390;2022-07-29T04:15:22;21.00;72.20
4695;DHT22;2361;49.540;8.390;2022-07-29T04:17:49;21.00;72.30
4695;DHT22;2361;49.540;8.390;2022-07-29T04:20:16;21.10;72.20
4695;DHT22;2361;49.540;8.390;2022-07-29T04:22:43;21.20;72.10
4695;DHT22;2361;49.540;8.390;2022-07-29T04:25:10;21.30;72.00
4695;DHT22;2361;49.540;8.390;2022-07-29T04:27:37;21.30;72.00
4695;DHT22;2361;49.540;8.390;2022-07-29T04:30:24;21.40;72.00
4695;DHT22;2361;49.540;8.390;2022-07-29T04:32:51;21.40;72.10
4695;DHT22;2361;49.540;8.390;2022-07-29T04:35:19;21.40;72.10
4695;DHT22;2361;49.540;8.390;2022-07-29T04:37:49;21.50;72.10
4695;DHT22;2361;49.540;8.390;2022-07-29T04:40:16;21.70;71.90
4695;DHT22;2361;49.540;8.390;2022-07-29T04:42:43;21.80;71.60
4695;DHT22;2361;49.540;8.390;2022-07-29T04:45:13;21.90;71.10
4695;DHT22;2361;49.540;8.390;2022-07-29T04:47:48;22.20;70.80
4695;DHT22;2361;49.540;8.390;2022-07-29T04:50:15;22.30;70.50
4695;DHT22;2361;49.540;8.390;2022-07-29T04:52:43;22.40;70.20
4695;DHT22;2361;49.540;8.390;2022-07-29T04:55:09;22.50;70.10
4695;DHT22;2361;49.540;8.390;2022-07-29T04:57:37;22.60;69.90
4695;DHT22;2361;49.540;8.390;2022-07-29T05:00:05;22.70;69.70
4695;DHT22;2361;49.540;8.390;2022-07-29T05:02:32;22.80;69.50
4695;DHT22;2361;49.540;8.390;2022-07-29T05:04:59;23.00;69.00
4695;DHT22;2361;49.540;8.390;2022-07-29T05:07:26;23.20;68.60
4695;DHT22;2361;49.540;8.390;2022-07-29T05:09:53;23.50;67.80
4695;DHT22;2361;49.540;8.390;2022-07-29T05:12:24;23.70;67.00
4695;DHT22;2361;49.540;8.390;2022-07-29T05:14:51;23.90;66.50
4695;DHT22;2361;49.540;8.390;2022-07-29T05:17:18;24.00;66.50
4695;DHT22;2361;49.540;8.390;2022-07-29T05:19:45;24.10;66.40
4695;DHT22;2361;49.540;8.390;2022-07-29T05:22:12;24.20;65.90
4695;DHT22;2361;49.540;8.390;2022-07-29T05:24:39;24.40;65.80
4695;DHT22;2361;49.540;8.390;2022-07-29T05:27:07;24.70;65.00
4695;DHT22;2361;49.540;8.390;2022-07-29T05:29:34;24.80;64.60
4695;DHT22;2361;49.540;8.390;2022-07-29T05:32:11;25.00;64.70
4695;DHT22;2361;49.540;8.390;2022-07-29T05:34:39;25.10;64.40
4695;DHT22;2361;49.540;8.390;2022-07-29T05:37:18;25.20;64.40
4695;DHT22;2361;49.540;8.390;2022-07-29T05:39:46;25.40;64.00
4695;DHT22;2361;49.540;8.390;2022-07-29T05:42:23;25.60;63.80
4695;DHT22;2361;49.540;8.390;2022-07-29T05:44:51;25.80;63.40
4695;DHT22;2361;49.540;8.390;2022-07-29T05:47:18;26.00;63.10
4695;DHT22;2361;49.540;8.390;2022-07-29T05:49:45;26.30;62.70
4695;DHT22;2361;49.540;8.390;2022-07-29T05:52:12;26.40;62.20
4695;DHT22;2361;49.540;8.390;2022-07-29T05:54:40;26.70;61.60
4695;DHT22;2361;49.540;8.390;2022-07-29T05:57:07;26.90;61.00
4695;DHT22;2361;49.540;8.390;2022-07-29T05:59:37;27.10;60.50
4695;DHT22;2361;49.540;8.390;2022-07-29T06:02:05;27.30;60.00
4695;DHT22;2361;49.540;8.390;2022-07-29T06:04:32;27.50;59.60
4695;DHT22;2361;49.540;8.390;2022-07-29T06:07:00;27.90;59.20
4695;DHT22;2361;49.540;8.390;2022-07-29T06:09:28;28.30;58.20
4695;DHT22;2361;49.540;8.390;2022-07-29T06:11:55;28.70;57.70
4695;DHT22;2361;49.540;8.390;2022-07-29T06:14:22;29.00;56.60
4695;DHT22;2361;49.540;8.390;2022-07-29T06:16:49;29.40;56.60
4695;DHT22;2361;49.540;8.390;2022-07-29T06:19:16;29.80;55.80
4695;DHT22;2361;49.540;8.390;2022-07-29T06:21:46;30.20;55.30
4695;DHT22;2361;49.540;8.390;2022-07-29T06:24:15;30.40;54.80
4695;DHT22;2361;49.540;8.390;2022-07-29T06:26:42;30.90;54.30
4695;DHT22;2361;49.540;8.390;2022-07-29T06:29:11;31.40;54.00
4695;DHT22;2361;49.540;8.390;2022-07-29T06:31:38;31.90;53.10
4695;DHT22;2361;49.540;8.390;2022-07-29T06:34:05;32.40;52.50
4695;DHT22;2361;49.540;8.390;2022-07-29T06:36:35;33.10;51.70
4695;DHT22;2361;49.540;8.390;2022-07-29T06:39:07;33.50;50.90
4695;DHT22;2361;49.540;8.390;2022-07-29T06:41:37;33.30;50.80
4695;DHT22;2361;49.540;8.390;2022-07-29T06:44:03;33.20;50.90
4695;DHT22;2361;49.540;8.390;2022-07-29T06:46:31;33.10;50.90
4695;DHT22;2361;49.540;8.390;2022-07-29T06:48:58;32.80;51.10
4695;DHT22;2361;49.540;8.390;2022-07-29T06:51:28;32.60;51.40
4695;DHT22;2361;49.540;8.390;2022-07-29T06:53:55;32.60;51.50
4695;DHT22;2361;49.540;8.390;2022-07-29T06:56:33;32.60;51.60
4695;DHT22;2361;49.540;8.390;2022-07-29T06:59:06;33.10;51.30
4695;DHT22;2361;49.540;8.390;2022-07-29T07:01:36;33.30;51.00
4695;DHT22;2361;49.540;8.390;2022-07-29T07:04:04;33.50;51.10
4695;DHT22;2361;49.540;8.390;2022-07-29T07:06:31;34.30;50.50
4695;DHT22;2361;49.540;8.390;2022-07-29T07:08:58;34.50;49.80
4695;DHT22;2361;49.540;8.390;2022-07-29T07:11:25;34.10;49.90
4695;DHT22;2361;49.540;8.390;2022-07-29T07:13:52;33.50;50.40
4695;DHT22;2361;49.540;8.390;2022-07-29T07:16:19;32.90;51.00
4695;DHT22;2361;49.540;8.390;2022-07-29T07:18:46;32.30;51.80
4695;DHT22;2361;49.540;8.390;2022-07-29T07:21:13;31.60;52.80
4695;DHT22;2361;49.540;8.390;2022-07-29T07:23:45;31.60;53.50
4695;DHT22;2361;49.540;8.390;2022-07-29T07:26:12;31.50;53.60
4695;DHT22;2361;49.540;8.390;2022-07-29T07:28:39;31.40;53.80
4695;DHT22;2361;49.540;8.390;2022-07-29T07:31:06;32.10;53.80
4695;DHT22;2361;49.540;8.390;2022-07-29T07:33:33;33.50;52.20
4695;DHT22;2361;49.540;8.390;2022-07-29T07:36:00;34.10;51.50
4695;DHT22;2361;49.540;8.390;2022-07-29T07:38:27;34.30;51.20
4695;DHT22;2361;49.540;8.390;2022-07-29T07:40:54;33.90;51.50
4695;DHT22;2361;49.540;8.390;2022-07-29T07:43:21;33.50;52.10
4695;DHT22;2361;49.540;8.390;2022-07-29T07:45:49;32.80;53.40
4695;DHT22;2361;49.540;8.390;2022-07-29T07:48:16;32.30;54.40
4695;DHT22;2361;49.540;8.390;2022-07-29T07:50:43;32.50;55.00
4695;DHT22;2361;49.540;8.390;2022-07-29T07:53:10;32.80;54.60
4695;DHT22;2361;49.540;8.390;2022-07-29T07:55:41;32.60;54.70
4695;DHT22;2361;49.540;8.390;2022-07-29T07:58:28;31.90;55.80
4695;DHT22;2361;49.540;8.390;2022-07-29T08:00:55;31.10;56.90
4695;DHT22;2361;49.540;8.390;2022-07-29T08:03:22;31.30;56.80
4695;DHT22;2361;49.540;8.390;2022-07-29T08:05:48;30.80;57.20
4695;DHT22;2361;49.540;8.390;2022-07-29T08:08:18;30.50;58.20
4695;DHT22;2361;49.540;8.390;2022-07-29T08:10:47;30.10;58.90
4695;DHT22;2361;49.540;8.390;2022-07-29T08:13:21;29.50;59.90
4695;DHT22;2361;49.540;8.390;2022-07-29T08:15:51;29.10;60.70
4695;DHT22;2361;49.540;8.390;2022-07-29T08:18:28;29.20;60.70
4695;DHT22;2361;49.540;8.390;2022-07-29T08:20:57;30.00;59.80
4695;DHT22;2361;49.540;8.390;2022-07-29T08:23:25;31.00;58.50
4695;DHT22;2361;49.540;8.390;2022-07-29T08:26:13;31.20;57.80
4695;DHT22;2361;49.540;8.390;2022-07-29T08:28:42;31.00;57.60
4695;DHT22;2361;49.540;8.390;2022-07-29T08:31:15;30.40;58.70
4695;DHT22;2361;49.540;8.390;2022-07-29T08:33:42;32.00;57.60
4695;DHT22;2361;49.540;8.390;2022-07-29T08:36:09;33.40;55.10
4695;DHT22;2361;49.540;8.390;2022-07-29T08:38:37;34.30;53.60
4695;DHT22;2361;49.540;8.390;2022-07-29T08:41:04;34.10;53.50
4695;DHT22;2361;49.540;8.390;2022-07-29T08:43:31;34.60;53.10
4695;DHT22;2361;49.540;8.390;2022-07-29T08:45:58;35.00;52.70
4695;DHT22;2361;49.540;8.390;2022-07-29T08:48:25;34.50;52.70
4695;DHT22;2361;49.540;8.390;2022-07-29T08:50:54;33.30;53.90
4695;DHT22;2361;49.540;8.390;2022-07-29T08:53:24;31.90;55.90
4695;DHT22;2361;49.540;8.390;2022-07-29T08:55:54;31.90;56.10
4695;DHT22;2361;49.540;8.390;2022-07-29T08:58:22;32.10;56.10
4695;DHT22;2361;49.540;8.390;2022-07-29T09:00:55;32.10;56.00
4695;DHT22;2361;49.540;8.390;2022-07-29T09:03:24;31.60;56.60
4695;DHT22;2361;49.540;8.390;2022-07-29T09:05:52;31.10;57.40
4695;DHT22;2361;49.540;8.390;2022-07-29T09:08:19;30.80;58.20
4695;DHT22;2361;49.540;8.390;2022-07-29T09:10:47;31.20;57.90
4695;DHT22;2361;49.540;8.390;2022-07-29T09:13:14;32.20;57.20
4695;DHT22;2361;49.540;8.390;2022-07-29T09:15:41;34.50;54.80
4695;DHT22;2361;49.540;8.390;2022-07-29T09:18:08;37.20;51.60
4695;DHT22;2361;49.540;8.390;2022-07-29T09:20:55;39.10;49.20
4695;DHT22;2361;49.540;8.390;2022-07-29T09:23:40;41.30;46.90
4695;DHT22;2361;49.540;8.390;2022-07-29T09:26:09;42.90;45.20
4695;DHT22;2361;49.540;8.390;2022-07-29T09:28:41;43.10;44.30
4695;DHT22;2361;49.540;8.390;2022-07-29T09:31:08;43.80;44.50
4695;DHT22;2361;49.540;8.390;2022-07-29T09:33:36;44.50;43.20
4695;DHT22;2361;49.540;8.390;2022-07-29T09:36:09;45.30;42.30
4695;DHT22;2361;49.540;8.390;2022-07-29T09:38:37;45.40;41.70
4695;DHT22;2361;49.540;8.390;2022-07-29T09:41:05;45.30;41.70
4695;DHT22;2361;49.540;8.390;2022-07-29T09:43:34;44.90;41.80
4695;DHT22;2361;49.540;8.390;2022-07-29T09:46:14;45.30;41.60
4695;DHT22;2361;49.540;8.390;2022-07-29T09:48:41;45.90;41.20
4695;DHT22;2361;49.540;8.390;2022-07-29T09:51:19;46.40;40.70
4695;DHT22;2361;49.540;8.390;2022-07-29T09:53:53;46.60;40.30
4695;DHT22;2361;49.540;8.390;2022-07-29T09:56:38;46.20;40.10
4695;DHT22;2361;49.540;8.390;2022-07-29T09:59:09;46.00;40.00
4695;DHT22;2361;49.540;8.390;2022-07-29T10:01:37;45.10;40.20
4695;DHT22;2361;49.540;8.390;2022-07-29T10:04:04;43.70;41.40
4695;DHT22;2361;49.540;8.390;2022-07-29T10:06:31;43.60;41.80
4695;DHT22;2361;49.540;8.390;2022-07-29T10:09:08;44.20;41.70
4695;DHT22;2361;49.540;8.390;2022-07-29T10:11:35;44.60;41.00
4695;DHT22;2361;49.540;8.390;2022-07-29T10:14:15;43.60;41.50
4695;DHT22;2361;49.540;8.390;2022-07-29T10:17:14;43.40;41.80
4695;DHT22;2361;49.540;8.390;2022-07-29T10:19:42;42.90;42.00
4695;DHT22;2361;49.540;8.390;2022-07-29T10:22:10;40.00;43.90
4695;DHT22;2361;49.540;8.390;2022-07-29T10:24:38;38.50;45.50
4695;DHT22;2361;49.540;8.390;2022-07-29T10:27:08;37.90;46.40
4695;DHT22;2361;49.540;8.390;2022-07-29T10:29:35;36.90;47.60
4695;DHT22;2361;49.540;8.390;2022-07-29T10:43:48;35.20;49.30
4695;DHT22;2361;49.540;8.390;2022-07-29T10:46:17;35.10;49.40
4695;DHT22;2361;49.540;8.390;2022-07-29T10:49:08;34.90;49.70
4695;DHT22;2361;49.540;8.390;2022-07-29T10:52:15;34.70;49.90
4695;DHT22;2361;49.540;8.390;2022-07-29T10:54:45;34.40;50.10
4695;DHT22;2361;49.540;8.390;2022-07-29T10:57:30;34.20;50.40
4695;DHT22;2361;49.540;8.390;2022-07-29T11:00:28;33.90;50.50
4695;DHT22;2361;49.540;8.390;2022-07-29T11:02:57;33.50;51.00
4695;DHT22;2361;49.540;8.390;2022-07-29T11:05:25;33.00;51.60
4695;DHT22;2361;49.540;8.390;2022-07-29T11:13:52;31.70;53.70
4695;DHT22;2361;49.540;8.390;2022-07-29T11:16:22;31.50;53.80
4695;DHT22;2361;49.540;8.390;2022-07-29T11:21:42;31.50;54.00
4695;DHT22;2361;49.540;8.390;2022-07-29T11:24:30;31.40;53.60
4695;DHT22;2361;49.540;8.390;2022-07-29T11:27:19;31.30;53.80
4695;DHT22;2361;49.540;8.390;2022-07-29T11:32:20;31.30;53.50
4695;DHT22;2361;49.540;8.390;2022-07-29T11:38:24;31.70;52.40
4695;DHT22;2361;49.540;8.390;2022-07-29T11:41:22;31.70;52.60
4695;DHT22;2361;49.540;8.390;2022-07-29T11:43:52;31.50;52.60
4695;DHT22;2361;49.540;8.390;2022-07-29T11:46:46;31.50;52.80
4695;DHT22;2361;49.540;8.390;2022-07-29T11:49:34;31.60;52.90
4695;DHT22;2361;49.540;8.390;2022-07-29T11:52:02;31.40;53.20
4695;DHT22;2361;49.540;8.390;2022-07-29T11:54:34;31.20;53.50
4695;DHT22;2361;49.540;8.390;2022-07-29T11:57:21;31.00;54.10
4695;DHT22;2361;49.540;8.390;2022-07-29T12:00:07;30.90;53.60
4695;DHT22;2361;49.540;8.390;2022-07-29T12:02:41;30.80;54.40
4695;DHT22;2361;49.540;8.390;2022-07-29T12:05:14;30.50;54.20
4695;DHT22;2361;49.540;8.390;2022-07-29T12:08:19;30.30;54.20
4695;DHT22;2361;49.540;8.390;2022-07-29T12:10:51;30.20;54.60
4695;DHT22;2361;49.540;8.390;2022-07-29T12:13:19;30.30;54.80
4695;DHT22;2361;49.540;8.390;2022-07-29T12:15:55;30.40;54.70
4695;DHT22;2361;49.540;8.390;2022-07-29T12:18:25;30.60;54.30
4695;DHT22;2361;49.540;8.390;2022-07-29T12:21:01;30.70;53.70
4695;DHT22;2361;49.540;8.390;2022-07-29T12:23:32;30.80;54.00
4695;DHT22;2361;49.540;8.390;2022-07-29T12:26:04;30.80;54.20
4695;DHT22;2361;49.540;8.390;2022-07-29T12:28:37;30.90;54.10
4695;DHT22;2361;49.540;8.390;2022-07-29T12:31:05;31.00;53.70
4695;DHT22;2361;49.540;8.390;2022-07-29T12:33:34;31.20;53.60
4695;DHT22;2361;49.540;8.390;2022-07-29T12:36:02;31.30;53.10
4695;DHT22;2361;49.540;8.390;2022-07-29T12:38:40;31.30;52.70
4695;DHT22;2361;49.540;8.390;2022-07-29T12:41:07;31.20;52.90
4695;DHT22;2361;49.540;8.390;2022-07-29T12:43:34;31.00;52.80
4695;DHT22;2361;49.540;8.390;2022-07-29T12:46:12;31.00;53.10
4695;DHT22;2361;49.540;8.390;2022-07-29T12:48:42;31.00;53.10
4695;DHT22;2361;49.540;8.390;2022-07-29T12:51:10;31.10;53.10
4695;DHT22;2361;49.540;8.390;2022-07-29T12:53:40;31.20;53.00
4695;DHT22;2361;49.540;8.390;2022-07-29T12:56:16;31.30;52.90
4695;DHT22;2361;49.540;8.390;2022-07-29T12:59:20;31.30;52.70
4695;DHT22;2361;49.540;8.390;2022-07-29T13:01:50;31.40;52.20
4695;DHT22;2361;49.540;8.390;2022-07-29T13:04:29;31.20;52.10
4695;DHT22;2361;49.540;8.390;2022-07-29T13:09:39;31.40;52.30
4695;DHT22;2361;49.540;8.390;2022-07-29T13:12:11;31.40;52.10
4695;DHT22;2361;49.540;8.390;2022-07-29T13:14:49;31.40;52.30
4695;DHT22;2361;49.540;8.390;2022-07-29T13:17:18;31.40;52.40
4695;DHT22;2361;49.540;8.390;2022-07-29T13:19:51;31.60;52.40
4695;DHT22;2361;49.540;8.390;2022-07-29T13:22:21;31.70;52.10
4695;DHT22;2361;49.540;8.390;2022-07-29T13:24:57;31.80;51.50
4695;DHT22;2361;49.540;8.390;2022-07-29T13:27:29;31.90;51.90
4695;DHT22;2361;49.540;8.390;2022-07-29T13:29:59;32.00;51.10
4695;DHT22;2361;49.540;8.390;2022-07-29T13:32:29;32.00;50.90
4695;DHT22;2361;49.540;8.390;2022-07-29T13:34:59;32.00;50.60
4695;DHT22;2361;49.540;8.390;2022-07-29T13:37:32;31.80;50.60
4695;DHT22;2361;49.540;8.390;2022-07-29T13:40:02;31.70;50.80
4695;DHT22;2361;49.540;8.390;2022-07-29T13:42:31;31.60;51.10
4695;DHT22;2361;49.540;8.390;2022-07-29T13:44:59;31.20;51.50
4695;DHT22;2361;49.540;8.390;2022-07-29T13:47:26;31.20;52.00
4695;DHT22;2361;49.540;8.390;2022-07-29T13:50:02;31.10;51.80
4695;DHT22;2361;49.540;8.390;2022-07-29T13:52:32;31.30;52.20
4695;DHT22;2361;49.540;8.390;2022-07-29T13:55:00;31.00;52.30
4695;DHT22;2361;49.540;8.390;2022-07-29T13:57:27;30.90;52.40
4695;DHT22;2361;49.540;8.390;2022-07-29T13:59:55;30.90;52.20
4695;DHT22;2361;49.540;8.390;2022-07-29T14:02:22;30.80;52.50
4695;DHT22;2361;49.540;8.390;2022-07-29T14:04:52;30.90;52.20
4695;DHT22;2361;49.540;8.390;2022-07-29T14:07:20;30.80;52.60
4695;DHT22;2361;49.540;8.390;2022-07-29T14:09:47;30.80;52.80
4695;DHT22;2361;49.540;8.390;2022-07-29T14:12:14;30.90;53.10
4695;DHT22;2361;49.540;8.390;2022-07-29T14:14:41;31.00;52.90
4695;DHT22;2361;49.540;8.390;2022-07-29T14:17:09;31.00;52.50
4695;DHT22;2361;49.540;8.390;2022-07-29T14:19:36;30.80;52.80
4695;DHT22;2361;49.540;8.390;2022-07-29T14:22:05;30.80;52.60
4695;DHT22;2361;49.540;8.390;2022-07-29T14:24:35;30.70;53.00
4695;DHT22;2361;49.540;8.390;2022-07-29T14:27:04;30.60;52.60
4695;DHT22;2361;49.540;8.390;2022-07-29T14:29:31;30.80;52.80
4695;DHT22;2361;49.540;8.390;2022-07-29T14:32:07;30.90;52.10
4695;DHT22;2361;49.540;8.390;2022-07-29T14:34:37;30.80;51.70
4695;DHT22;2361;49.540;8.390;2022-07-29T14:37:05;31.00;51.70
4695;DHT22;2361;49.540;8.390;2022-07-29T14:39:33;31.10;51.60
4695;DHT22;2361;49.540;8.390;2022-07-29T14:42:08;31.10;50.70
4695;DHT22;2361;49.540;8.390;2022-07-29T14:44:39;31.20;51.70
4695;DHT22;2361;49.540;8.390;2022-07-29T14:47:08;31.20;50.90
4695;DHT22;2361;49.540;8.390;2022-07-29T14:49:35;31.20;50.30
4695;DHT22;2361;49.540;8.390;2022-07-29T14:52:02;31.20;50.60
4695;DHT22;2361;49.540;8.390;2022-07-29T14:54:29;31.30;50.60
4695;DHT22;2361;49.540;8.390;2022-07-29T14:56:56;31.40;50.40
4695;DHT22;2361;49.540;8.390;2022-07-29T14:59:25;31.40;50.30
4695;DHT22;2361;49.540;8.390;2022-07-29T15:01:52;31.50;50.40
4695;DHT22;2361;49.540;8.390;2022-07-29T15:04:20;31.60;50.20
4695;DHT22;2361;49.540;8.390;2022-07-29T15:06:47;31.50;50.00
4695;DHT22;2361;49.540;8.390;2022-07-29T15:09:14;31.60;49.90
4695;DHT22;2361;49.540;8.390;2022-07-29T15:11:41;31.60;49.70
4695;DHT22;2361;49.540;8.390;2022-07-29T15:14:08;31.70;49.60
4695;DHT22;2361;49.540;8.390;2022-07-29T15:16:37;31.70;49.20
4695;DHT22;2361;49.540;8.390;2022-07-29T15:19:08;31.60;48.70
4695;DHT22;2361;49.540;8.390;2022-07-29T15:21:35;31.60;48.80
4695;DHT22;2361;49.540;8.390;2022-07-29T15:24:13;31.30;48.90
4695;DHT22;2361;49.540;8.390;2022-07-29T15:26:40;31.40;49.20
4695;DHT22;2361;49.540;8.390;2022-07-29T15:29:08;31.40;48.80
4695;DHT22;2361;49.540;8.390;2022-07-29T15:31:36;31.30;48.80
4695;DHT22;2361;49.540;8.390;2022-07-29T15:34:03;31.30;49.00
4695;DHT22;2361;49.540;8.390;2022-07-29T15:36:32;31.30;49.30
4695;DHT22;2361;49.540;8.390;2022-07-29T15:39:20;31.30;49.10
4695;DHT22;2361;49.540;8.390;2022-07-29T15:41:48;31.10;49.30
4695;DHT22;2361;49.540;8.390;2022-07-29T15:44:16;30.90;49.50
4695;DHT22;2361;49.540;8.390;2022-07-29T15:46:43;30.70;50.10
4695;DHT22;2361;49.540;8.390;2022-07-29T15:49:30;30.60;49.50
4695;DHT22;2361;49.540;8.390;2022-07-29T15:52:16;30.60;49.50
4695;DHT22;2361;49.540;8.390;2022-07-29T15:54:50;30.70;49.50
4695;DHT22;2361;49.540;8.390;2022-07-29T15:57:17;30.80;49.10
4695;DHT22;2361;49.540;8.390;2022-07-29T15:59:44;30.80;49.00
4695;DHT22;2361;49.540;8.390;2022-07-29T16:02:11;30.90;49.10
4695;DHT22;2361;49.540;8.390;2022-07-29T16:04:38;31.00;48.90
4695;DHT22;2361;49.540;8.390;2022-07-29T16:07:05;31.10;48.60
4695;DHT22;2361;49.540;8.390;2022-07-29T16:09:33;31.00;48.50
4695;DHT22;2361;49.540;8.390;2022-07-29T16:12:00;31.00;48.60
4695;DHT22;2361;49.540;8.390;2022-07-29T16:14:27;31.00;48.60
4695;DHT22;2361;49.540;8.390;2022-07-29T16:16:54;31.00;48.10
4695;DHT22;2361;49.540;8.390;2022-07-29T16:19:22;30.90;48.30
4695;DHT22;2361;49.540;8.390;2022-07-29T16:21:49;30.90;48.70
4695;DHT22;2361;49.540;8.390;2022-07-29T16:24:17;31.00;48.30
4695;DHT22;2361;49.540;8.390;2022-07-29T16:26:44;31.10;48.90
4695;DHT22;2361;49.540;8.390;2022-07-29T16:29:11;31.20;48.20
4695;DHT22;2361;49.540;8.390;2022-07-29T16:31:38;31.20;47.90
4695;DHT22;2361;49.540;8.390;2022-07-29T16:34:05;31.20;48.40
4695;DHT22;2361;49.540;8.390;2022-07-29T16:36:32;31.20;47.70
4695;DHT22;2361;49.540;8.390;2022-07-29T16:38:59;31.20;47.90
4695;DHT22;2361;49.540;8.390;2022-07-29T16:41:25;31.20;47.70
4695;DHT22;2361;49.540;8.390;2022-07-29T16:43:53;31.20;47.20
4695;DHT22;2361;49.540;8.390;2022-07-29T16:46:20;31.10;47.50
4695;DHT22;2361;49.540;8.390;2022-07-29T16:48:49;30.90;47.60
4695;DHT22;2361;49.540;8.390;2022-07-29T16:51:16;30.90;47.20
4695;DHT22;2361;49.540;8.390;2022-07-29T16:53:43;30.80;47.40
4695;DHT22;2361;49.540;8.390;2022-07-29T16:56:14;30.70;47.20
4695;DHT22;2361;49.540;8.390;2022-07-29T16:58:41;30.70;47.30
4695;DHT22;2361;49.540;8.390;2022-07-29T17:01:10;30.70;47.30
4695;DHT22;2361;49.540;8.390;2022-07-29T17:03:37;30.70;47.20
4695;DHT22;2361;49.540;8.390;2022-07-29T17:06:26;30.60;47.00
4695;DHT22;2361;49.540;8.390;2022-07-29T17:08:55;30.60;47.90